Latest Coastal Weather Observations for Minlaton Airport

IDS60701

Issued at 7:11 am CDT Monday 23 October 2017 (issued every 10 minutes, with the page automatically refreshed every 10 minutes)

About coastal observations | Map of coastal stations | Coastal observations for SA | Marine services | Other Formats
Station Details ID: 022031 Name: MINLATON AERO Lat: -34.75 Lon: 137.53 Height: 32.0 m
Data from the previous 72 hours. | See also: Recent months at Minlaton Airport
Date/Time
CDT
Temp
°C
Wind Pressure Rain since
9am
mm
Weather Cloud Vis
km
Sea
Height
m
Swell
Dir  Spd
kts
Gust
kts
hPa Trend Height
m
Period
s
Dir
23/07:00am 10.0 E 7 8 1019.5 - 0.0 - - - - - - -
23/06:30am 8.7 ESE 6 7 1019.5 - 0.0 - - - - - - -
23/06:00am 7.6 ESE 6 8 1019.5 - 0.0 - - - - - - -
23/05:30am 8.3 SE 7 7 1019.3 - 0.0 - - - - - - -
23/05:00am 8.5 ESE 7 8 1019.2 - 0.0 - - - - - - -
23/04:30am 7.9 ESE 7 8 1019.2 - 0.0 - - - - - - -
23/04:00am 7.8 SE 9 10 1019.4 - 0.0 - - - - - - -
23/03:30am 8.5 SE 8 9 1019.7 - 0.0 - - - - - - -
23/03:00am 7.9 SE 8 9 1019.9 - 0.0 - - - - - - -
23/02:30am 8.1 SE 8 9 1020.2 - 0.0 - - - - - - -
23/02:00am 9.1 SE 8 9 1020.7 - 0.0 - - - - - - -
23/01:30am 8.9 SE 8 9 1020.8 - 0.0 - - - - - - -
23/01:00am 10.0 SE 9 10 1021.3 - 0.0 - - - - - - -
23/12:30am 10.1 SE 9 9 1021.5 - 0.0 - - - - - - -
23/12:00am 10.0 SE 8 8 1021.8 - 0.0 - - - - - - -
 
Date/Time
CDT
Temp
°C
Wind Pressure Rain since
9am
mm
Weather Cloud Vis
km
Sea
Height
m
Swell
Dir  Spd
kts
Gust
kts
hPa Trend Height
m
Period
s
Dir
22/11:30pm 10.8 SE 8 9 1021.5 - 0.0 - - - - - - -
22/11:00pm 10.4 SSE 7 8 1021.6 - 0.0 - - - - - - -
22/10:30pm 10.7 SSE 7 8 1021.7 - 0.0 - - - - - - -
22/10:00pm 11.1 SSE 8 9 1021.9 - 0.0 - - - - - - -
22/09:30pm 11.8 SSE 7 8 1022.1 - 0.0 - - - - - - -
22/09:00pm 10.9 SSE 8 9 1021.8 - 0.0 - - - - - - -
22/08:30pm 10.8 S 7 8 1021.6 - 0.0 - - - - - - -
22/08:00pm 12.5 SSE 7 8 1021.1 - 0.0 - - - - - - -
22/07:30pm 14.7 SSE 9 12 1021.1 - 0.0 - - - - - - -
22/07:00pm 15.8 SSE 11 14 1021.1 - 0.0 - - - - - - -
22/06:30pm 16.9 S 10 13 1021.1 - 0.0 - - - - - - -
22/06:00pm 17.1 SSE 11 15 1021.2 - 0.0 - - - - - - -
22/05:30pm 17.1 S 11 15 1021.3 - 0.0 - - - - - - -
22/05:00pm 17.2 S 11 16 1021.3 - 0.0 - - - - - - -
22/04:30pm 17.5 SW 11 17 1021.4 - 0.0 - - - - - - -
22/04:00pm 17.9 SSW 11 16 1021.4 - 0.0 - - - - - - -
22/03:30pm 18.5 SSW 9 13 1021.5 - 0.0 - - - - - - -
22/03:00pm 17.9 S 11 15 1021.9 - 0.0 - - - - - - -
22/02:30pm 19.1 SSW 9 13 1022.1 - 0.0 - - - - - - -
22/02:00pm 18.2 S 10 16 1022.4 - 0.0 - - - - - - -
22/01:30pm 18.5 SSW 11 16 1022.5 - 0.0 - - - - - - -
22/01:00pm 18.2 S 12 18 1022.7 - 0.0 - - - - - - -
22/12:30pm 18.6 S 11 15 1023.0 - 0.0 - - - - - - -
22/12:00pm 18.1 S 10 17 1023.3 - 0.0 - - - - - - -
22/11:30am 16.5 SW 11 16 1023.6 - 0.0 - - - - - - -
22/11:00am 16.2 SW 11 16 1023.8 - 0.0 - - - - - - -
22/10:30am 14.7 S 12 17 1024.1 - 0.0 - - - - - - -
22/10:00am 15.6 S 8 14 1023.9 - 0.0 - - - - - - -
22/09:30am 14.8 SW 12 16 1024.1 - 0.0 - - - - - - -
22/09:00am 15.2 SSE 9 13 1024.1 - 0.0 - - - - - - -
22/08:30am 13.9 S 10 12 1024.0 - 0.0 - - - - - - -
22/08:00am 13.4 S 8 10 1023.9 - 0.0 - - - - - - -
22/07:30am 12.6 SSW 6 9 1023.7 - 0.0 - - - - - - -
22/07:00am 12.2 S 6 7 1023.6 - 0.0 - - - - - - -
22/06:30am 11.9 S 6 9 1023.5 - 0.0 - - - - - - -
22/06:00am 11.9 S 6 9 1023.5 - 0.0 - - - - - - -
22/05:30am 11.9 SSW 7 10 1023.5 - 0.0 - - - - - - -
22/05:00am 11.9 S 8 11 1023.5 - 0.0 - - - - - - -
22/04:30am 11.7 S 10 14 1023.6 - 0.0 - - - - - - -
22/04:00am 11.8 S 8 11 1023.7 - 0.0 - - - - - - -
22/03:30am 11.6 S 8 14 1023.8 - 0.0 - - - - - - -
22/03:00am 11.3 S 7 10 1024.2 - 0.0 - - - - - - -
22/02:30am 11.7 S 9 13 1024.4 - 0.0 - - - - - - -
22/02:00am 11.7 S 6 9 1024.7 - 0.0 - - - - - - -
22/01:30am 12.0 S 10 13 1025.0 - 0.0 - - - - - - -
22/01:00am 12.1 SSE 5 6 1025.4 - 0.0 - - - - - - -
22/12:30am 12.0 S 6 8 1025.7 - 0.0 - - - - - - -
22/12:00am 11.9 SSE 6 7 1025.9 - 0.0 - - - - - - -
 
Date/Time
CDT
Temp
°C
Wind Pressure Rain since
9am
mm
Weather Cloud Vis
km
Sea
Height
m
Swell
Dir  Spd
kts
Gust
kts
hPa Trend Height
m
Period
s
Dir
21/11:30pm 11.9 S 8 11 1026.2 - 0.0 - - - - - - -
21/11:00pm 12.3 S 9 11 1026.4 - 0.0 - - - - - - -
21/10:30pm 12.5 S 13 19 1026.4 - 0.0 - - - - - - -
21/10:00pm 12.9 S 13 18 1026.7 - 0.0 - - - - - - -
21/09:30pm 13.2 S 11 15 1026.8 - 0.0 - - - - - - -
21/09:00pm 13.4 S 13 16 1026.8 - 0.0 - - - - - - -
21/08:30pm 13.7 S 11 15 1026.7 - 0.0 - - - - - - -
21/08:00pm 13.9 S 12 15 1026.4 - 0.0 - - - - - - -
21/07:30pm 13.9 S 9 12 1026.3 - 0.0 - - - - - - -
21/07:00pm 14.8 S 12 18 1026.3 - 0.0 - - - - - - -
21/06:30pm 15.4 S 13 16 1026.2 - 0.0 - - - - - - -
21/06:00pm 16.8 SSW 12 17 1026.2 - 0.0 - - - - - - -
21/05:30pm 17.7 SSW 14 19 1026.2 - 0.0 - - - - - - -
21/05:00pm 18.1 S 13 22 1026.2 - 0.0 - - - - - - -
21/04:30pm 18.7 SSW 12 17 1026.4 - 0.0 - - - - - - -
21/04:00pm 19.3 S 14 19 1026.7 - 0.0 - - - - - - -
21/03:30pm 19.0 S 14 21 1026.8 - 0.0 - - - - - - -
21/03:00pm 19.6 SSW 13 18 1027.0 - 0.0 - - - - - - -
21/02:30pm 19.0 S 11 16 1027.4 - 0.0 - - - - - - -
21/02:00pm 19.3 S 13 18 1027.7 - 0.0 - - - - - - -
21/01:30pm 19.2 S 13 19 1028.1 - 0.0 - - - - - - -
21/01:00pm 19.0 S 13 19 1028.3 - 0.0 - - - - - - -
21/12:30pm 18.2 SSE 9 15 1028.6 - 0.0 - - - - - - -
21/12:00pm 18.5 S 11 16 1029.1 - 0.0 - - - - - - -
21/11:30am 18.0 SSE 8 15 1029.2 - 0.0 - - - - - - -
21/11:00am 17.5 SSE 9 13 1029.7 - 0.0 - - - - - - -
21/10:30am 16.4 SSE 10 16 1030.0 - 0.0 - - - - - - -
21/10:00am 16.2 SSE 11 15 1029.8 - 0.0 - - - - - - -
21/09:30am 14.5 SSE 12 16 1030.5 - 0.0 - - - - - - -
21/09:00am 14.0 SE 13 19 1030.2 - 0.0 - - - - - - -
21/08:30am 13.5 SSE 12 16 1030.2 - 0.0 - - - - - - -
21/08:00am 12.9 S 12 15 1030.1 - 0.0 - - - - - - -
21/07:30am 12.2 S 9 11 1029.9 - 0.0 - - - - - - -
21/07:00am 11.2 S 8 9 1029.8 - 0.0 - - - - - - -
21/06:30am 10.6 SSE 6 7 1029.5 - 0.0 - - - - - - -
21/06:00am 10.7 SSE 6 7 1029.5 - 0.0 - - - - - - -
21/05:30am 10.8 S 6 8 1029.5 - 0.0 - - - - - - -
21/05:00am 10.7 SSE 5 7 1029.5 - 0.0 - - - - - - -
21/04:30am 11.2 SSE 7 9 1029.4 - 0.0 - - - - - - -
21/04:00am 11.7 SE 10 14 1029.7 - 0.0 - - - - - - -
21/03:30am 11.7 SSE 8 10 1030.0 - 0.0 - - - - - - -
21/03:00am 11.9 SSE 9 13 1030.2 - 0.0 - - - - - - -
21/02:30am 11.7 SSE 8 10 1030.3 - 0.0 - - - - - - -
21/02:00am 11.3 S 9 13 1030.6 - 0.0 - - - - - - -
21/01:30am 10.3 SSE 6 9 1030.6 - 0.0 - - - - - - -
21/01:00am 9.9 SSE 7 8 1030.9 - 0.0 - - - - - - -
21/12:30am 10.8 SSE 8 11 1031.2 - 0.0 - - - - - - -
21/12:00am 11.6 SSE 10 13 1031.5 - 0.0 - - - - - - -
 
Date/Time
CDT
Temp
°C
Wind Pressure Rain since
9am
mm
Weather Cloud Vis
km
Sea
Height
m
Swell
Dir  Spd
kts
Gust
kts
hPa Trend Height
m
Period
s
Dir
20/11:30pm 11.5 S 9 12 1031.7 - 0.0 - - - - - - -
20/11:00pm 11.5 SSE 9 13 1031.7 - 0.0 - - - - - - -
20/10:30pm 11.9 SSE 9 13 1031.8 - 0.0 - - - - - - -
20/10:00pm 11.1 SSE 8 11 1031.7 - 0.0 - - - - - - -
20/09:30pm 9.6 SSE 8 10 1031.7 - 0.0 - - - - - - -
20/09:00pm 9.8 SSE 9 11 1031.6 - 0.0 - - - - - - -
20/08:30pm 10.1 SSE 9 11 1031.4 - 0.0 - - - - - - -
20/08:00pm 11.5 SSE 9 11 1031.5 - 0.0 - - - - - - -
20/07:30pm 13.0 SSE 12 17 1031.1 - 0.0 - - - - - - -
20/07:00pm 14.2 SE 16 21 1030.5 - 0.0 - - - - - - -
20/06:30pm 15.1 SE 17 22 1030.3 - 0.0 - - - - - - -
20/06:00pm 15.8 SE 17 22 1030.1 - 0.0 - - - - - - -
20/05:30pm 16.9 SE 17 23 1029.9 - 0.0 - - - - - - -
20/05:00pm 17.9 SE 16 23 1029.7 - 0.0 - - - - - - -
20/04:30pm 18.3 SE 16 23 1029.6 - 0.0 - - - - - - -
20/04:00pm 19.2 SSE 15 23 1029.7 - 0.0 - - - - - - -
20/03:30pm 18.8 S 15 23 1029.9 - 0.0 - - - - - - -
20/03:00pm 20.3 SSE 14 22 1029.9 - 0.0 - - - - - - -
20/02:42pm 20.0 S 15 25 1030.0 - 0.0 - - - - - - -
20/02:30pm 19.8 SSE 15 25 1030.1 - 0.0 - - - - - - -
20/02:27pm 19.5 S 15 25 1030.1 - 0.0 - - - - - - -
20/02:00pm 19.4 SSE 13 21 1030.4 - 0.0 - - - - - - -
20/01:30pm 19.1 SE 13 21 1030.7 - 0.0 - - - - - - -
20/01:00pm 18.9 SE 14 21 1030.9 - 0.0 - - - - - - -
20/12:30pm 18.7 SSE 13 22 1031.2 - 0.0 - - - - - - -
20/12:00pm 18.3 SSE 11 19 1031.4 - 0.0 - - - - - - -
20/11:30am 18.0 SSE 13 19 1031.7 - 0.0 - - - - - - -
20/11:00am 17.5 SE 12 20 1031.7 - 0.0 - - - - - - -
20/10:30am 17.5 SSE 12 18 1031.8 - 0.0 - - - - - - -
20/10:00am 16.7 SSE 12 18 1031.7 - 0.0 - - - - - - -
20/09:30am 16.2 SSE 15 19 1031.5 - 0.0 - - - - - - -
20/09:00am 15.5 S 13 17 1031.5 - 0.0 - - - - - - -
20/08:30am 13.3 S 9 12 1031.1 - 0.0 - - - - - - -
20/08:00am 11.9 S 7 9 1030.7 - 0.0 - - - - - - -
20/07:30am 10.2 S 6 7 1030.3 - 0.0 - - - - - - -

Other Formats:

Comma delimited format used in spreadsheet applications
http://www.bom.gov.au/fwo/IDS60701/IDS60701.95659.axf

JavaScript Object Notation format (JSON) in row-major order
http://www.bom.gov.au/fwo/IDS60701/IDS60701.95659.json